createdAt,value
2023-04-08T19:03:17.541Z,12.50
2023-04-08T19:05:46.545Z,12.00
2023-04-08T19:08:15.368Z,11.90
2023-04-08T19:13:12.198Z,11.80
2023-04-08T19:15:40.821Z,11.70
2023-04-08T19:18:09.783Z,11.60
2023-04-08T19:20:38.509Z,11.50
2023-04-08T19:28:06.061Z,11.40
2023-04-08T19:30:38.124Z,11.20
2023-04-08T19:33:10.689Z,11.10
2023-04-08T19:35:39.406Z,11.10
2023-04-08T19:38:08.188Z,11.10
2023-04-08T19:40:36.800Z,11.00
2023-04-08T19:43:05.402Z,11.00
2023-04-08T19:45:34.507Z,10.90
2023-04-08T19:48:03.186Z,10.90
2023-04-08T19:50:31.876Z,10.90
2023-04-08T19:53:00.875Z,10.80
2023-04-08T19:55:29.813Z,10.70
2023-04-08T19:57:58.422Z,10.70
2023-04-08T20:00:29.221Z,10.70
2023-04-08T20:02:58.008Z,10.70
2023-04-08T20:05:26.868Z,10.80
2023-04-08T20:07:57.525Z,10.60
2023-04-08T20:10:26.124Z,10.60
2023-04-08T20:12:54.771Z,10.70
2023-04-08T20:15:25.093Z,10.60
2023-04-08T20:17:54.060Z,10.60
2023-04-08T20:20:23.133Z,10.60
2023-04-08T20:22:51.805Z,10.50
2023-04-08T20:25:20.516Z,10.60
2023-04-08T20:27:49.106Z,10.60
2023-04-08T20:30:18.379Z,10.60
2023-04-08T20:32:46.990Z,10.00
2023-04-08T20:35:15.738Z,10.40
2023-04-08T20:37:44.369Z,10.30
2023-04-08T20:40:13.094Z,10.20
2023-04-08T20:42:41.680Z,10.10
2023-04-08T20:45:11.642Z,10.10
2023-04-08T20:47:40.520Z,10.00
2023-04-08T20:50:09.753Z,9.90
2023-04-08T20:52:39.800Z,9.80
2023-04-08T20:55:08.940Z,9.50
2023-04-08T20:57:37.565Z,9.70
2023-04-08T21:00:07.483Z,9.60
2023-04-08T21:02:36.849Z,9.60
2023-04-08T21:05:05.906Z,9.70
2023-04-08T21:07:35.322Z,9.60
2023-04-08T21:10:03.915Z,9.60
2023-04-08T21:12:32.494Z,9.70
2023-04-08T21:15:01.120Z,9.90
2023-04-08T21:17:31.153Z,9.60
2023-04-08T21:19:59.884Z,10.10
2023-04-08T21:22:28.773Z,10.20
2023-04-08T21:24:57.348Z,10.30
2023-04-08T21:27:26.016Z,10.50
2023-04-08T21:29:54.720Z,10.60
2023-04-08T21:32:23.460Z,10.60
2023-04-08T21:34:54.259Z,10.70
2023-04-08T21:37:22.933Z,11.40
2023-04-08T21:39:52.544Z,10.90
2023-04-08T21:42:22.834Z,10.70
2023-04-08T21:44:51.372Z,11.00
2023-04-08T21:47:19.966Z,10.90
2023-04-08T21:49:49.840Z,11.20
2023-04-08T21:52:18.427Z,11.20
2023-04-08T21:54:51.566Z,11.20
2023-04-08T21:57:20.581Z,11.30
2023-04-08T21:59:49.754Z,11.40
2023-04-08T22:02:18.481Z,11.40
2023-04-08T22:04:47.294Z,11.50
2023-04-08T22:07:16.044Z,11.60
2023-04-08T22:09:44.669Z,11.60
2023-04-08T22:12:13.256Z,11.60
2023-04-08T22:14:41.855Z,11.60
2023-04-08T22:17:10.526Z,11.70
2023-04-08T22:19:39.108Z,11.70
2023-04-08T22:22:07.716Z,11.80
2023-04-08T22:24:37.044Z,11.80
2023-04-08T22:27:05.693Z,12.00
2023-04-08T22:29:34.292Z,11.90
2023-04-08T22:32:02.902Z,11.80
2023-04-08T22:34:31.878Z,11.70
2023-04-08T22:37:00.479Z,11.90
2023-04-08T22:39:29.118Z,11.70
2023-04-08T22:41:57.726Z,11.90
2023-04-08T22:44:26.369Z,11.70
2023-04-08T22:46:55.148Z,11.70
2023-04-08T22:49:23.820Z,11.50
2023-04-08T22:51:52.894Z,11.50
2023-04-08T22:54:21.494Z,11.30
2023-04-08T22:56:50.261Z,11.30
2023-04-08T22:59:18.896Z,11.30
2023-04-08T23:01:47.533Z,11.30
2023-04-08T23:04:16.220Z,11.20
2023-04-08T23:06:44.783Z,11.30
2023-04-08T23:09:14.409Z,11.10
2023-04-08T23:11:42.987Z,11.50
2023-04-08T23:14:11.674Z,11.40
2023-04-08T23:16:40.268Z,11.40
2023-04-08T23:19:08.860Z,11.10
2023-04-08T23:21:37.446Z,11.40
2023-04-08T23:24:06.778Z,11.30
2023-04-08T23:26:35.371Z,11.30
2023-04-08T23:29:04.023Z,11.30
2023-04-08T23:31:32.722Z,11.10
2023-04-08T23:34:01.275Z,11.10
2023-04-08T23:36:29.920Z,11.10
2023-04-08T23:38:58.598Z,11.00
2023-04-08T23:41:27.230Z,11.20
2023-04-08T23:43:55.813Z,10.90
2023-04-08T23:46:24.500Z,10.90
2023-04-08T23:48:53.207Z,10.90
2023-04-08T23:51:21.936Z,10.90
2023-04-08T23:53:52.081Z,10.80
2023-04-08T23:56:20.660Z,10.90
2023-04-08T23:58:49.302Z,10.90
